createdAt,value
2022-12-25T00:01:39.305Z,33.40
2022-12-25T00:04:07.379Z,31.40
2022-12-25T00:06:35.686Z,29.60
2022-12-25T00:09:03.862Z,33.00
2022-12-25T00:11:31.844Z,29.70
2022-12-25T00:13:59.831Z,48.60
2022-12-25T00:16:27.978Z,82.00
2022-12-25T00:18:56.413Z,60.80
2022-12-25T00:21:24.787Z,31.30
2022-12-25T00:23:56.028Z,34.00
2022-12-25T00:26:24.987Z,29.80
2022-12-25T00:28:54.170Z,30.20
2022-12-25T00:31:22.772Z,31.80
2022-12-25T00:33:51.676Z,24.50
2022-12-25T00:36:20.727Z,22.90
2022-12-25T00:38:48.786Z,23.50
2022-12-25T00:41:18.451Z,28.70
2022-12-25T00:43:46.445Z,26.50
2022-12-25T00:46:14.669Z,29.00
2022-12-25T00:48:45.434Z,25.50
2022-12-25T00:51:13.429Z,27.40
2022-12-25T00:53:41.564Z,28.80
2022-12-25T00:56:10.508Z,29.80
2022-12-25T00:58:38.464Z,32.50
2022-12-25T01:01:06.585Z,30.90
2022-12-25T01:03:34.559Z,31.30
2022-12-25T01:06:03.766Z,29.10
2022-12-25T01:08:33.460Z,32.60
2022-12-25T01:11:02.813Z,29.20
2022-12-25T01:13:31.420Z,32.50
2022-12-25T01:15:59.502Z,31.70
2022-12-25T01:18:28.329Z,29.90
2022-12-25T01:20:56.341Z,31.60
2022-12-25T01:23:24.359Z,32.20
2022-12-25T01:25:52.372Z,30.70
2022-12-25T01:28:20.425Z,27.40
2022-12-25T01:30:49.152Z,27.90
2022-12-25T01:33:17.249Z,28.20
2022-12-25T01:35:45.304Z,26.20
2022-12-25T01:38:13.297Z,26.00
2022-12-25T01:40:41.525Z,27.30
2022-12-25T01:43:35.760Z,25.50
2022-12-25T01:46:06.813Z,26.00
2022-12-25T01:48:37.174Z,26.50
2022-12-25T01:51:20.369Z,23.80
2022-12-25T01:53:48.559Z,23.00
2022-12-25T01:56:16.820Z,24.10
2022-12-25T01:58:44.832Z,23.00
2022-12-25T02:01:13.014Z,24.20
2022-12-25T02:03:42.692Z,22.30
2022-12-25T02:06:10.877Z,22.30
2022-12-25T02:08:39.913Z,24.20
2022-12-25T02:11:29.290Z,23.50
2022-12-25T02:13:57.425Z,24.90
2022-12-25T02:16:28.959Z,24.20
2022-12-25T02:18:58.944Z,21.50
2022-12-25T02:21:32.620Z,20.30
2022-12-25T02:24:06.293Z,20.20
2022-12-25T02:26:44.327Z,23.20
2022-12-25T02:29:30.656Z,22.70
2022-12-25T02:32:02.736Z,21.50
2022-12-25T02:34:33.886Z,22.30
2022-12-25T02:37:12.446Z,21.50
2022-12-25T02:39:59.462Z,20.70
2022-12-25T02:43:08.526Z,19.50
2022-12-25T02:46:04.606Z,19.70
2022-12-25T02:48:53.912Z,18.50
2022-12-25T02:51:43.078Z,17.20
2022-12-25T02:54:31.876Z,16.00
2022-12-25T02:57:20.802Z,15.90
2022-12-25T03:00:08.910Z,14.20
2022-12-25T03:02:55.941Z,13.70
2022-12-25T03:05:43.541Z,13.00
2022-12-25T03:08:14.019Z,13.50
2022-12-25T03:11:03.633Z,14.10
2022-12-25T03:13:34.324Z,13.10
2022-12-25T03:16:20.971Z,14.00
2022-12-25T03:18:49.073Z,12.80
2022-12-25T03:21:35.838Z,13.90
2022-12-25T03:24:22.813Z,14.90
2022-12-25T03:26:57.089Z,13.50
2022-12-25T03:29:48.703Z,14.30
2022-12-25T03:32:28.922Z,12.40
2022-12-25T03:35:15.602Z,13.30
2022-12-25T03:38:09.474Z,12.30
2022-12-25T03:40:56.380Z,11.80
2022-12-25T03:43:54.376Z,10.50
2022-12-25T03:46:43.517Z,9.90
2022-12-25T03:49:45.863Z,9.40
2022-12-25T03:52:35.181Z,9.10
2022-12-25T03:55:23.852Z,10.00
2022-12-25T03:58:10.306Z,8.30
2022-12-25T04:00:56.929Z,8.90
2022-12-25T04:03:44.439Z,8.90
2022-12-25T04:06:31.231Z,8.60
2022-12-25T04:09:18.070Z,9.40
2022-12-25T04:12:05.099Z,9.10
2022-12-25T04:14:51.907Z,7.70
2022-12-25T04:17:38.674Z,7.60
2022-12-25T04:20:26.102Z,9.70
2022-12-25T04:23:12.839Z,8.70
2022-12-25T04:25:59.811Z,8.40
2022-12-25T04:28:46.838Z,9.00
2022-12-25T04:31:33.805Z,8.40
2022-12-25T04:34:20.537Z,7.70
2022-12-25T04:36:48.524Z,8.50
2022-12-25T04:39:16.543Z,8.00
2022-12-25T04:41:44.547Z,8.90
2022-12-25T04:44:12.629Z,8.40
2022-12-25T04:46:40.781Z,8.80
2022-12-25T04:49:08.844Z,8.50
2022-12-25T04:51:37.033Z,7.30
2022-12-25T04:54:05.171Z,7.90
2022-12-25T04:56:33.452Z,7.50
2022-12-25T04:59:01.580Z,8.40
2022-12-25T05:01:29.696Z,7.80
2022-12-25T05:03:57.961Z,7.60
2022-12-25T05:06:25.940Z,8.00
2022-12-25T05:08:53.998Z,7.40
2022-12-25T05:11:22.233Z,7.00
2022-12-25T05:13:50.219Z,7.40
2022-12-25T05:16:20.189Z,7.90
2022-12-25T05:18:49.357Z,7.10
2022-12-25T05:21:17.981Z,6.70
2022-12-25T05:23:49.299Z,6.00
2022-12-25T05:26:21.012Z,5.90
2022-12-25T05:28:49.156Z,7.20
2022-12-25T05:31:17.898Z,6.40
2022-12-25T05:33:46.356Z,6.70
2022-12-25T05:36:14.444Z,9.80
2022-12-25T05:38:42.511Z,8.00
2022-12-25T05:41:10.681Z,6.30
2022-12-25T05:43:38.668Z,7.10
2022-12-25T05:46:07.836Z,6.90
2022-12-25T05:48:37.010Z,7.90
2022-12-25T05:51:08.745Z,7.00
2022-12-25T05:53:36.770Z,7.00
2022-12-25T05:56:06.122Z,5.80
2022-12-25T05:58:35.253Z,6.90
2022-12-25T06:01:03.664Z,7.00
2022-12-25T06:03:31.881Z,7.00
2022-12-25T06:05:59.944Z,6.90
2022-12-25T06:08:27.949Z,8.10
2022-12-25T06:10:55.935Z,6.40
2022-12-25T06:13:23.969Z,7.40
2022-12-25T06:15:52.152Z,6.90
2022-12-25T06:18:20.189Z,7.40
2022-12-25T06:20:48.401Z,7.90
2022-12-25T06:23:16.547Z,8.10
2022-12-25T06:25:44.651Z,7.50
2022-12-25T06:28:12.812Z,7.90
2022-12-25T06:30:40.952Z,7.40
2022-12-25T06:33:08.984Z,7.90
2022-12-25T06:35:39.229Z,8.60
2022-12-25T06:38:07.654Z,8.40
2022-12-25T06:40:35.732Z,7.70
2022-12-25T06:43:03.873Z,8.00
2022-12-25T06:45:31.935Z,8.30
2022-12-25T06:47:59.975Z,7.10
2022-12-25T06:50:28.051Z,7.10
2022-12-25T06:52:57.036Z,8.20
2022-12-25T06:55:25.053Z,7.70
2022-12-25T06:57:53.125Z,8.60
2022-12-25T07:00:21.383Z,7.20
2022-12-25T07:02:50.144Z,8.20
2022-12-25T07:05:18.462Z,6.70
2022-12-25T07:07:46.491Z,8.20
2022-12-25T07:10:14.628Z,7.10
2022-12-25T07:12:42.667Z,8.10
2022-12-25T07:15:10.808Z,8.10
2022-12-25T07:17:38.913Z,7.90
2022-12-25T07:20:07.234Z,8.30
2022-12-25T07:22:35.484Z,6.80
2022-12-25T07:25:03.570Z,8.00
2022-12-25T07:27:31.600Z,7.30
2022-12-25T07:29:59.634Z,8.00
2022-12-25T07:32:30.588Z,8.00
2022-12-25T07:34:58.685Z,8.20
2022-12-25T07:37:27.021Z,8.00
2022-12-25T07:39:55.039Z,7.40
2022-12-25T07:42:25.270Z,7.50
2022-12-25T07:44:55.528Z,7.80
2022-12-25T07:47:23.555Z,7.40
2022-12-25T07:49:51.766Z,7.20
2022-12-25T07:52:19.889Z,6.90
2022-12-25T07:54:48.002Z,7.50
2022-12-25T07:57:16.063Z,6.50
2022-12-25T07:59:44.136Z,7.30
2022-12-25T08:02:12.431Z,6.40
2022-12-25T08:04:41.973Z,8.20
2022-12-25T08:07:09.976Z,8.20
2022-12-25T08:09:38.083Z,7.40
2022-12-25T08:12:06.266Z,6.80
2022-12-25T08:14:34.981Z,7.10
2022-12-25T08:17:03.109Z,6.60
2022-12-25T08:19:31.355Z,7.10
2022-12-25T08:21:59.565Z,7.30
2022-12-25T08:24:27.652Z,7.90
2022-12-25T08:26:55.676Z,7.20
2022-12-25T08:29:23.759Z,6.70
2022-12-25T08:31:51.908Z,7.20
2022-12-25T08:34:20.074Z,7.10
2022-12-25T08:36:48.141Z,7.10
2022-12-25T08:39:16.184Z,7.60
2022-12-25T08:41:44.405Z,7.10
2022-12-25T08:44:13.067Z,7.80
2022-12-25T08:46:41.235Z,8.20
2022-12-25T08:49:09.323Z,6.10
2022-12-25T08:51:37.478Z,6.40
2022-12-25T08:54:05.435Z,7.10
2022-12-25T08:56:33.460Z,5.50
2022-12-25T08:59:01.719Z,6.10
2022-12-25T09:01:29.978Z,5.70
2022-12-25T09:03:58.068Z,5.80
2022-12-25T09:06:26.505Z,5.30
2022-12-25T09:08:57.431Z,6.10
2022-12-25T09:11:25.590Z,4.90
2022-12-25T09:13:53.700Z,5.50
2022-12-25T09:16:22.287Z,5.80
2022-12-25T09:18:50.771Z,4.90
2022-12-25T09:21:19.358Z,5.50
2022-12-25T09:23:47.339Z,5.80
2022-12-25T09:26:16.178Z,4.90
2022-12-25T09:28:50.668Z,4.90
2022-12-25T09:31:20.686Z,4.40
2022-12-25T09:33:49.338Z,4.50
2022-12-25T09:36:17.937Z,5.20
2022-12-25T09:38:45.911Z,4.80
2022-12-25T09:41:14.452Z,4.90
2022-12-25T09:44:02.786Z,4.60
2022-12-25T09:46:37.541Z,6.00
2022-12-25T09:49:31.999Z,4.70
2022-12-25T09:52:03.405Z,5.00
2022-12-25T09:54:39.120Z,5.20
2022-12-25T09:57:10.994Z,6.10
2022-12-25T09:59:39.337Z,5.60
2022-12-25T10:02:16.676Z,6.20
2022-12-25T10:04:44.967Z,5.80
2022-12-25T10:07:12.983Z,5.10
2022-12-25T10:09:59.610Z,5.70
2022-12-25T10:12:30.644Z,5.90
2022-12-25T10:14:58.811Z,5.60
2022-12-25T10:17:37.685Z,5.90
2022-12-25T10:20:11.848Z,4.90
2022-12-25T10:25:15.257Z,6.80
2022-12-25T10:27:43.483Z,5.60
2022-12-25T10:30:19.545Z,6.30
2022-12-25T10:32:48.103Z,6.00
2022-12-25T10:35:17.570Z,6.20
2022-12-25T10:37:46.899Z,7.00
2022-12-25T10:40:21.285Z,5.40
2022-12-25T10:42:52.828Z,6.00
2022-12-25T10:45:20.828Z,6.10
2022-12-25T10:47:54.385Z,6.50
2022-12-25T10:50:28.798Z,6.70
2022-12-25T10:53:05.422Z,6.40
2022-12-25T10:55:33.607Z,5.90
2022-12-25T10:58:02.355Z,8.00
2022-12-25T11:00:31.532Z,8.50
2022-12-25T11:03:00.176Z,11.20
2022-12-25T11:05:30.473Z,17.10
2022-12-25T11:08:00.317Z,19.00
2022-12-25T11:10:35.951Z,19.80
2022-12-25T11:13:08.367Z,90.60
2022-12-25T11:15:39.469Z,31.40
2022-12-25T11:18:20.053Z,38.40
2022-12-25T11:20:52.693Z,50.80
2022-12-25T11:23:22.392Z,37.90
2022-12-25T11:26:02.381Z,18.60
2022-12-25T11:28:31.453Z,13.70
2022-12-25T11:31:01.656Z,22.60
2022-12-25T11:33:33.512Z,10.90
2022-12-25T11:36:03.161Z,10.50
2022-12-25T11:38:31.190Z,8.10
2022-12-25T11:41:01.384Z,8.80
2022-12-25T11:43:29.445Z,12.20
2022-12-25T11:46:01.400Z,7.70
2022-12-25T11:48:35.384Z,7.60
2022-12-25T11:51:05.207Z,8.00
2022-12-25T11:53:43.046Z,8.40
2022-12-25T11:56:30.828Z,8.50
2022-12-25T11:59:11.485Z,7.90
2022-12-25T12:02:14.553Z,9.30
2022-12-25T12:04:44.501Z,8.30
2022-12-25T12:07:24.000Z,8.00
2022-12-25T12:12:48.821Z,9.10
2022-12-25T12:15:23.243Z,6.80
2022-12-25T12:17:51.262Z,8.00
2022-12-25T12:20:42.004Z,8.00
2022-12-25T12:23:23.926Z,8.50
2022-12-25T12:25:52.348Z,7.50
2022-12-25T12:28:25.393Z,7.50
2022-12-25T12:31:04.400Z,7.20
2022-12-25T12:33:35.275Z,8.50
2022-12-25T12:36:04.399Z,7.10
2022-12-25T12:38:34.195Z,11.50
2022-12-25T12:41:03.803Z,9.30
2022-12-25T12:43:31.784Z,9.50
2022-12-25T12:46:05.663Z,7.90
2022-12-25T12:48:42.136Z,8.20
2022-12-25T12:51:11.817Z,7.90
2022-12-25T12:53:40.701Z,8.20
2022-12-25T12:56:16.941Z,8.60
2022-12-25T12:58:50.960Z,6.50
2022-12-25T13:01:19.188Z,7.00
2022-12-25T13:03:59.274Z,7.90
2022-12-25T13:06:37.196Z,6.20
2022-12-25T13:09:11.192Z,6.70
2022-12-25T13:11:40.750Z,6.50
2022-12-25T13:14:20.252Z,5.80
2022-12-25T13:16:50.487Z,6.80
2022-12-25T13:19:22.025Z,6.80
2022-12-25T13:21:57.453Z,7.10
2022-12-25T13:24:26.867Z,6.20
2022-12-25T13:26:55.242Z,6.30
2022-12-25T13:29:29.900Z,7.70
2022-12-25T13:31:58.824Z,7.30
2022-12-25T13:34:37.602Z,7.10
2022-12-25T13:37:10.405Z,6.80
2022-12-25T13:39:39.770Z,6.70
2022-12-25T13:42:10.205Z,7.50
2022-12-25T13:44:55.060Z,6.70
2022-12-25T13:47:25.097Z,6.80
2022-12-25T13:49:54.648Z,6.10
2022-12-25T13:52:36.873Z,6.90
2022-12-25T13:55:11.606Z,9.10
2022-12-25T13:57:59.356Z,7.30
2022-12-25T14:00:45.909Z,6.80
2022-12-25T14:03:18.306Z,7.30
2022-12-25T14:05:55.210Z,7.50
2022-12-25T14:08:25.234Z,7.90
2022-12-25T14:10:54.263Z,7.50
2022-12-25T14:13:23.749Z,6.50
2022-12-25T14:15:53.625Z,7.70
2022-12-25T14:18:22.926Z,7.60
2022-12-25T14:21:02.817Z,11.80
2022-12-25T14:23:47.679Z,41.70
2022-12-25T14:26:17.213Z,16.20
2022-12-25T14:28:49.783Z,9.50
2022-12-25T14:31:18.441Z,10.50
2022-12-25T14:33:47.130Z,10.40
2022-12-25T14:36:15.255Z,12.20
2022-12-25T14:38:44.332Z,10.80
2022-12-25T14:41:24.227Z,10.80
2022-12-25T14:43:54.796Z,9.50
2022-12-25T14:46:24.358Z,8.90
2022-12-25T14:49:18.978Z,9.40
2022-12-25T14:51:47.055Z,10.40
2022-12-25T14:54:18.441Z,10.00
2022-12-25T14:56:47.576Z,9.80
2022-12-25T14:59:20.725Z,8.20
2022-12-25T15:01:57.284Z,10.30
2022-12-25T15:04:27.217Z,8.40
2022-12-25T15:06:57.359Z,7.50
2022-12-25T15:09:25.635Z,8.70
2022-12-25T15:11:55.841Z,8.10
2022-12-25T15:14:24.467Z,8.90
2022-12-25T15:16:54.181Z,8.30
2022-12-25T15:19:36.504Z,8.80
2022-12-25T15:22:05.877Z,8.00
2022-12-25T15:24:33.878Z,8.90
2022-12-25T15:27:02.153Z,7.80
2022-12-25T15:30:07.785Z,9.90
2022-12-25T15:32:19.197Z,9.20
2022-12-25T15:34:47.342Z,10.20
2022-12-25T15:37:16.345Z,9.10
2022-12-25T15:39:44.442Z,7.50
2022-12-25T15:42:17.410Z,8.80
2022-12-25T15:44:45.646Z,7.90
2022-12-25T15:47:15.281Z,8.40
2022-12-25T15:49:43.708Z,8.90
2022-12-25T15:52:13.713Z,9.90
2022-12-25T15:54:41.784Z,8.70
2022-12-25T15:57:22.855Z,8.70
2022-12-25T15:59:51.290Z,9.00
2022-12-25T16:02:20.813Z,8.80
2022-12-25T16:04:51.281Z,9.20
2022-12-25T16:07:20.583Z,7.60
2022-12-25T16:09:48.973Z,7.70
2022-12-25T16:12:17.334Z,8.90
2022-12-25T16:14:45.381Z,11.50
2022-12-25T16:17:15.818Z,8.70
2022-12-25T16:19:45.021Z,9.10
2022-12-25T16:22:23.236Z,9.50
2022-12-25T16:24:51.968Z,10.50
2022-12-25T16:27:21.580Z,9.80
2022-12-25T16:29:50.144Z,10.50
2022-12-25T16:32:18.202Z,10.70
2022-12-25T16:34:48.547Z,9.80
2022-12-25T16:37:16.553Z,9.00
2022-12-25T16:39:44.579Z,9.60
2022-12-25T16:42:12.733Z,10.60
2022-12-25T16:44:40.727Z,9.40
2022-12-25T16:47:08.697Z,9.20
2022-12-25T16:49:36.714Z,8.80
2022-12-25T16:52:04.830Z,10.80
2022-12-25T16:54:32.838Z,9.50
2022-12-25T16:57:00.988Z,9.00
2022-12-25T16:59:29.521Z,9.70
2022-12-25T17:01:57.690Z,9.10
2022-12-25T17:04:27.246Z,9.80
2022-12-25T17:06:55.312Z,8.80
2022-12-25T17:09:23.378Z,10.10
2022-12-25T17:11:51.741Z,9.70
2022-12-25T17:14:19.909Z,10.30
2022-12-25T17:16:48.254Z,10.80
2022-12-25T17:19:18.456Z,9.00
2022-12-25T17:21:46.610Z,10.50
2022-12-25T17:24:14.804Z,10.50
2022-12-25T17:26:44.072Z,10.40
2022-12-25T17:29:17.093Z,10.90
2022-12-25T17:31:48.318Z,10.10
2022-12-25T17:34:16.395Z,8.90
2022-12-25T17:36:44.483Z,11.20
2022-12-25T17:39:12.560Z,10.10
2022-12-25T17:41:40.757Z,10.40
2022-12-25T17:44:09.100Z,8.30
2022-12-25T17:46:37.608Z,8.00
2022-12-25T17:49:06.074Z,9.30
2022-12-25T17:51:34.187Z,9.80
2022-12-25T17:54:05.230Z,8.70
2022-12-25T17:56:33.343Z,9.40
2022-12-25T17:59:06.951Z,9.60
2022-12-25T18:01:36.642Z,8.70
2022-12-25T18:04:06.367Z,10.50
2022-12-25T18:06:35.227Z,8.30
2022-12-25T18:09:06.388Z,10.00
2022-12-25T18:11:36.757Z,9.60
2022-12-25T18:14:05.784Z,9.40
2022-12-25T18:16:35.256Z,10.60
2022-12-25T18:19:03.552Z,9.80
2022-12-25T18:21:31.583Z,9.90
2022-12-25T18:23:59.705Z,9.90
2022-12-25T18:26:28.993Z,8.80
2022-12-25T18:28:57.623Z,10.70
2022-12-25T18:31:26.639Z,9.20
2022-12-25T18:33:54.913Z,10.00
2022-12-25T18:36:24.386Z,9.70
2022-12-25T18:38:53.395Z,9.50
2022-12-25T18:41:22.286Z,9.30
2022-12-25T18:43:53.462Z,9.20
2022-12-25T18:46:27.609Z,9.60
2022-12-25T18:48:56.693Z,9.90
2022-12-25T18:51:28.692Z,8.50
2022-12-25T18:54:01.875Z,7.60
2022-12-25T18:56:29.927Z,7.20
2022-12-25T18:58:59.836Z,8.80
2022-12-25T19:01:27.991Z,8.50
2022-12-25T19:04:04.073Z,8.30
2022-12-25T19:06:33.741Z,8.80
2022-12-25T19:09:08.804Z,8.80
2022-12-25T19:11:45.647Z,8.10
2022-12-25T19:14:14.891Z,6.50
2022-12-25T19:16:43.060Z,7.40
2022-12-25T19:19:11.461Z,7.80
2022-12-25T19:21:39.471Z,8.10
2022-12-25T19:24:07.571Z,7.40
2022-12-25T19:26:36.189Z,6.60
2022-12-25T19:29:04.217Z,7.80
2022-12-25T19:31:32.178Z,8.50
2022-12-25T19:34:00.177Z,6.60
2022-12-25T19:36:28.333Z,7.40
2022-12-25T19:38:56.685Z,7.70
2022-12-25T19:41:24.800Z,7.10
2022-12-25T19:43:52.918Z,7.10
2022-12-25T19:46:22.886Z,7.30
2022-12-25T19:48:51.323Z,7.10
2022-12-25T19:51:20.996Z,8.50
2022-12-25T19:53:49.404Z,8.10
2022-12-25T19:56:17.733Z,7.60
2022-12-25T19:58:45.990Z,8.00
2022-12-25T20:01:16.436Z,7.20
2022-12-25T20:03:48.158Z,7.90
2022-12-25T20:06:20.022Z,7.60
2022-12-25T20:08:48.811Z,7.30
2022-12-25T20:11:17.409Z,7.70
2022-12-25T20:13:45.835Z,7.10
2022-12-25T20:16:14.068Z,8.00
2022-12-25T20:18:42.214Z,7.80
2022-12-25T20:21:14.811Z,8.90
2022-12-25T20:23:43.713Z,9.60
2022-12-25T20:26:12.543Z,7.40
2022-12-25T20:28:41.901Z,8.00
2022-12-25T20:31:12.650Z,6.70
2022-12-25T20:33:40.708Z,7.70
2022-12-25T20:36:08.954Z,8.50
2022-12-25T20:38:40.027Z,8.40
2022-12-25T20:41:27.407Z,7.90
2022-12-25T20:43:57.521Z,7.60
2022-12-25T20:46:26.294Z,6.90
2022-12-25T20:48:54.855Z,7.80
2022-12-25T20:51:24.409Z,7.00
2022-12-25T20:53:52.840Z,6.20
2022-12-25T20:56:21.933Z,7.20
2022-12-25T20:58:56.932Z,7.70
2022-12-25T21:01:25.134Z,7.30
2022-12-25T21:03:53.805Z,7.00
2022-12-25T21:06:22.329Z,7.00
2022-12-25T21:08:50.727Z,7.30
2022-12-25T21:11:21.585Z,7.00
2022-12-25T21:13:50.186Z,6.60
2022-12-25T21:16:22.419Z,7.80
2022-12-25T21:18:52.556Z,6.50
2022-12-25T21:21:21.598Z,7.80
2022-12-25T21:23:49.860Z,6.70
2022-12-25T21:26:19.489Z,6.70
2022-12-25T21:28:48.401Z,6.70
2022-12-25T21:31:16.791Z,6.50
2022-12-25T21:33:54.623Z,7.40
2022-12-25T21:36:30.246Z,7.50
2022-12-25T21:39:02.891Z,6.50
2022-12-25T21:41:32.079Z,7.20
2022-12-25T21:44:00.042Z,6.10
2022-12-25T21:46:28.463Z,6.60
2022-12-25T21:48:56.918Z,6.80
2022-12-25T21:51:45.577Z,7.80
2022-12-25T21:54:14.244Z,12.60
2022-12-25T21:56:45.015Z,15.00
2022-12-25T21:59:15.298Z,17.10
2022-12-25T22:01:44.377Z,12.20
2022-12-25T22:04:13.314Z,9.80
2022-12-25T22:07:00.603Z,9.20
2022-12-25T22:09:28.883Z,7.80
2022-12-25T22:12:17.019Z,7.50
2022-12-25T22:14:56.299Z,6.60
2022-12-25T22:17:44.781Z,8.10
2022-12-25T22:20:15.213Z,6.90
2022-12-25T22:22:43.611Z,6.80
2022-12-25T22:25:12.091Z,9.70
2022-12-25T22:27:40.930Z,11.60
2022-12-25T22:30:13.484Z,9.60
2022-12-25T22:32:41.727Z,19.30
2022-12-25T22:35:10.407Z,14.00
2022-12-25T22:37:39.158Z,14.80
2022-12-25T22:40:07.808Z,12.80
2022-12-25T22:42:36.017Z,17.40
2022-12-25T22:45:04.316Z,16.10
2022-12-25T22:47:32.569Z,16.90
2022-12-25T22:50:00.656Z,13.80
2022-12-25T22:52:28.725Z,8.20
2022-12-25T22:54:56.825Z,8.10
2022-12-25T22:57:24.911Z,8.20
2022-12-25T22:59:53.177Z,8.50
2022-12-25T23:02:22.016Z,8.00
2022-12-25T23:04:50.735Z,8.50
2022-12-25T23:07:19.280Z,7.90
2022-12-25T23:09:47.339Z,8.80
2022-12-25T23:12:34.247Z,42.40
2022-12-25T23:15:02.242Z,19.10
2022-12-25T23:17:49.122Z,14.30
2022-12-25T23:20:35.738Z,20.00
2022-12-25T23:23:22.651Z,21.90
2022-12-25T23:26:09.203Z,9.40
2022-12-25T23:28:57.068Z,8.70
2022-12-25T23:31:29.059Z,7.70
2022-12-25T23:33:57.239Z,8.00
2022-12-25T23:36:25.450Z,10.70
2022-12-25T23:38:53.532Z,11.60
2022-12-25T23:41:22.329Z,9.90
2022-12-25T23:43:50.672Z,10.10
2022-12-25T23:46:18.894Z,8.70
2022-12-25T23:48:47.012Z,8.90
2022-12-25T23:51:14.968Z,9.00
2022-12-25T23:53:43.025Z,6.50
2022-12-25T23:56:11.150Z,6.00
2022-12-25T23:58:39.213Z,8.50
